St David — 2BHL9 — position and weather

sailwx.info

Track history (hours):
 
Tides and Currents Weather Stations Pressure Air Temp Water Temp Dewpoint Dewpoint Depression Visibility Wind Speed Wind Dir Waves Ship Positions

St David

Last reported at 2015-Jul-19 14:33 UTC. Time now 2015-Aug-02 18:22 UTC.
Position N 39°39' E 019°54'.
Warning: this ship's position is 14 days out of date.

Length 60 m; draft 3.4 m.

Type: Pleasure craft. MMSI: 235066164.

Date/timePositionNaut miles runAvg speedWind from/ knotsBaromVisibWave heightAir tempDewpointWater temp
2015-Jul-19 14:33N 39°39' E 019°54'  
2015-Jul-14 11:26N 37°51' E 015°54'1112.2
2015-Jul-14 10:31N 37°53' E 015°40'1212.4
2015-Jul-14 09:33N 38°04' E 015°34'1312.8
2015-Jul-14 08:33N 38°16' E 015°40'1312.8
2015-Jul-14 07:33N 38°26' E 015°29'1313.1
2015-Jul-14 06:33N 38°35' E 015°18'  
2015-Jul-11 18:33N 43°44' E 007°25'0 0.0
2015-Jul-11 17:09N 43°44' E 007°25'0 0.0
2015-Jul-11 11:06N 43°44' E 007°25'0 0.0
2015-Jul-11 10:24N 43°44' E 007°25'64 2.0
2015-Jul-10 01:28N 43°19' E 008°47'1511.9
2015-Jul-10 00:13N 43°13' E 009°06'811.8
2015-Jul-09 23:33N 43°10' E 009°16'1212.2
2015-Jul-09 22:33N 43°04' E 009°30'1312.7
2015-Jul-09 21:34N 42°52' E 009°36'1312.9
2015-Jul-09 20:31N 42°39' E 009°41'  
Track history (hours):
 
Tides and Currents Weather Stations Pressure Air Temp Water Temp Dewpoint Dewpoint Depression Visibility Wind Speed Wind Dir Waves Ship Positions

St David

Last reported at 2015-Jul-19 14:33 UTC. Time now 2015-Aug-02 18:22 UTC.
Position N 39°39' E 019°54'.
Warning: this ship's position is 14 days out of date.

Length 60 m; draft 3.4 m.

Type: Pleasure craft. MMSI: 235066164.

Date/timePositionNaut miles runAvg speedWind from/ knotsBaromVisibWave heightAir tempDewpointWater temp
2015-Jul-19 14:33N 39°39' E 019°54'  
2015-Jul-14 11:26N 37°51' E 015°54'1112.2
2015-Jul-14 10:31N 37°53' E 015°40'1212.4
2015-Jul-14 09:33N 38°04' E 015°34'1312.8
2015-Jul-14 08:33N 38°16' E 015°40'1312.8
2015-Jul-14 07:33N 38°26' E 015°29'1313.1
2015-Jul-14 06:33N 38°35' E 015°18'  
2015-Jul-11 18:33N 43°44' E 007°25'0 0.0
2015-Jul-11 17:09N 43°44' E 007°25'0 0.0
2015-Jul-11 11:06N 43°44' E 007°25'0 0.0
2015-Jul-11 10:24N 43°44' E 007°25'64 2.0
2015-Jul-10 01:28N 43°19' E 008°47'1511.9
2015-Jul-10 00:13N 43°13' E 009°06'811.8
2015-Jul-09 23:33N 43°10' E 009°16'1212.2
2015-Jul-09 22:33N 43°04' E 009°30'1312.7
2015-Jul-09 21:34N 42°52' E 009°36'1312.9
2015-Jul-09 20:31N 42°39' E 009°41'  

Dump ship's entire track history